Keeline, Wyoming
Current Conditions -  °F | °C
As of 7:01 PM on Sunday 21 Dec 2014 (Local Time) from KDGW Reporting Station
Overcast Overcast  
Wind Chill: 24°   Ceiling: 3200
Heat Index: 34°   Visibility: 10mi
Dew Point: 31°   Wind: 15mph
Humidity: 89%   Direction: 320°NW
Pressure: 29.59"   Gusts: NA
Location:  42.8195°N, 104.764°W
Report Text: KDGW 220201Z AUTO 32013KT 10SM BKN032 BKN070 OVC085 01/M01 A2959 RMK AO2 SNE0155 P0000 T00111006
Loading
Personal Weather Stations






























Interactive Weather Map New forecast layout! Learn more

10-Day Weather Forecast

Advertisements
Track Severe Weather on mobile